Time;durP1;ratioP1;P1;durP2;ratioP2;P2;SDS_P1;SDS_P2;PMS_P1;PMS_P2;Temp;Humidity;BMP_temperature;BMP_pressure;BME280_temperature;BME280_humidity;BME280_pressure;Samples;Min_cycle;Max_cycle;Signal;HPM_P1;HPM_P2
2022/03/12 00:01:00;;;;;;;37.80;17.05;;;;;;;-4.27;60.93;95631.56;5090477;28;20032;-73
2022/03/12 00:03:26;;;;;;;37.53;16.42;;;;;;;-4.24;60.77;95638.31;5090025;28;20032;-72
2022/03/12 00:05:59;;;;;;;38.90;17.00;;;;;;;-4.20;60.84;95647.59;5052374;28;20090;-73
2022/03/12 00:08:40;;;;;;;41.55;17.30;;;;;;;-4.13;61.59;95638.19;5059648;28;20507;-73
2022/03/12 00:11:06;;;;;;;34.25;15.20;;;;;;;-4.01;61.03;95640.59;5058952;28;20425;-73
2022/03/12 00:13:31;;;;;;;30.45;14.95;;;;;;;-3.96;61.63;95637.97;5090068;28;20032;-73
2022/03/12 00:15:58;;;;;;;29.48;13.48;;;;;;;-3.94;61.60;95643.88;5083770;28;20031;-73
2022/03/12 00:18:25;;;;;;;30.60;14.50;;;;;;;-3.92;60.94;95639.63;5089582;28;20072;-73
2022/03/12 00:20:50;;;;;;;27.25;14.57;;;;;;;-3.85;60.15;95646.28;5087714;28;20506;-73
2022/03/12 00:23:18;;;;;;;24.10;12.45;;;;;;;-3.83;59.74;95640.31;5072618;28;20043;-72
2022/03/12 00:25:44;;;;;;;23.95;11.82;;;;;;;-3.79;59.96;95646.19;5055775;28;20070;-72
2022/03/12 00:28:11;;;;;;;22.20;11.18;;;;;;;-3.74;59.79;95644.44;5071080;28;20023;-73
2022/03/12 00:30:37;;;;;;;25.75;11.85;;;;;;;-3.76;60.75;95638.56;5088300;28;20028;-73
2022/03/12 00:33:03;;;;;;;28.60;13.38;;;;;;;-3.77;62.45;95639.41;5089037;28;20043;-73
2022/03/12 00:35:29;;;;;;;27.90;12.82;;;;;;;-3.80;63.31;95643.69;5064992;28;20392;-73
2022/03/12 00:37:54;;;;;;;39.70;18.25;;;;;;;-3.90;64.03;95648.03;5090280;28;20028;-73
2022/03/12 00:40:20;;;;;;;40.75;18.88;;;;;;;-3.96;64.79;95643.88;5087033;28;20056;-73
2022/03/12 00:42:45;;;;;;;38.78;20.15;;;;;;;-3.96;65.75;95648.94;5088947;28;20028;-74
2022/03/12 00:45:11;;;;;;;45.80;20.50;;;;;;;-3.99;66.04;95643.91;5088651;28;20028;-73
2022/03/12 00:47:36;;;;;;;47.33;21.10;;;;;;;-4.05;67.15;95644.84;5090499;28;20040;-73
2022/03/12 00:50:02;;;;;;;44.35;20.88;;;;;;;-4.02;67.63;95643.13;5088412;28;20691;-73
2022/03/12 00:52:27;;;;;;;46.78;22.48;;;;;;;-4.06;67.78;95637.25;5072885;28;20043;-73
2022/03/12 00:54:52;;;;;;;51.53;23.55;;;;;;;-3.94;68.00;95648.94;5083893;28;20039;-73
2022/03/12 00:57:18;;;;;;;55.40;25.02;;;;;;;-3.91;68.82;95641.28;5087093;28;20090;-73
2022/03/12 00:59:44;;;;;;;45.83;21.30;;;;;;;-3.89;68.25;95652.28;5068241;28;20036;-73
2022/03/12 01:02:17;;;;;;;36.20;17.85;;;;;;;-3.91;68.42;95638.75;5081371;28;20028;-72
2022/03/12 01:04:43;;;;;;;37.78;17.00;;;;;;;-3.94;69.01;95641.34;5085826;28;20093;-73
2022/03/12 01:07:11;;;;;;;17.33;9.82;;;;;;;-3.96;68.56;95648.13;5086665;28;20119;-73
2022/03/12 01:09:40;;;;;;;23.42;11.52;;;;;;;-4.12;68.78;95655.94;5051222;28;20024;-73
2022/03/12 01:12:07;;;;;;;23.13;12.02;;;;;;;-4.19;69.43;95648.41;5086117;28;20101;-72
2022/03/12 01:14:32;;;;;;;34.42;15.90;;;;;;;-4.15;69.86;95653.44;5085443;28;20513;-73
2022/03/12 01:17:00;;;;;;;25.58;12.30;;;;;;;-4.20;70.12;95650.13;5080999;28;20024;-73
2022/03/12 01:19:26;;;;;;;16.50;9.65;;;;;;;-4.19;69.44;95653.50;5086681;28;20115;-73
2022/03/12 01:21:52;;;;;;;20.38;10.75;;;;;;;-4.27;69.78;95649.34;5091091;28;20123;-73
2022/03/12 01:24:17;;;;;;;17.40;9.85;;;;;;;-4.31;69.68;95646.88;5071169;28;20108;-72
2022/03/12 01:26:43;;;;;;;20.80;9.95;;;;;;;-4.27;69.79;95645.97;5068650;28;20660;-72
2022/03/12 01:29:08;;;;;;;17.33;9.10;;;;;;;-4.18;70.09;95653.50;5067732;28;20051;-73
2022/03/12 01:31:34;;;;;;;14.38;7.50;;;;;;;-4.18;68.83;95657.69;5071652;28;20032;-73
2022/03/12 01:34:00;;;;;;;15.63;7.15;;;;;;;-4.29;68.49;95663.75;5072335;28;20478;-72
2022/03/12 01:36:26;;;;;;;14.02;7.20;;;;;;;-4.32;68.96;95670.53;5070847;28;20039;-73
2022/03/12 01:38:53;;;;;;;11.80;6.90;;;;;;;-4.39;68.83;95674.03;5089747;28;20294;-73
2022/03/12 01:41:21;;;;;;;13.82;5.95;;;;;;;-4.49;69.32;95663.13;5087634;28;20495;-72
2022/03/12 01:43:47;;;;;;;11.43;5.82;;;;;;;-4.52;69.23;95658.09;5067865;28;20471;-72
2022/03/12 01:46:12;;;;;;;9.35;5.35;;;;;;;-4.51;69.29;95662.31;5083813;28;20036;-73
2022/03/12 01:48:44;;;;;;;15.82;6.40;;;;;;;-4.54;69.58;95644.56;5087893;28;20024;-73
2022/03/12 01:51:09;;;;;;;10.20;5.30;;;;;;;-4.40;68.53;95652.91;5087588;28;20036;-73
2022/03/12 01:53:35;;;;;;;8.45;4.43;;;;;;;-4.30;68.05;95648.53;5087657;28;20108;-72
2022/03/12 01:56:00;;;;;;;12.60;6.35;;;;;;;-4.31;67.72;95646.88;5081388;28;20559;-73
2022/03/12 01:58:26;;;;;;;18.13;9.35;;;;;;;-4.32;67.40;95655.31;5085468;28;20047;-73
2022/03/12 02:00:53;;;;;;;17.95;9.90;;;;;;;-4.36;68.54;95648.63;5075762;28;20555;-73
2022/03/12 02:03:26;;;;;;;20.23;9.70;;;;;;;-4.30;68.21;95649.38;5066057;28;20046;-72
2022/03/12 02:05:52;;;;;;;15.95;8.25;;;;;;;-4.23;67.81;95645.09;5088434;28;20100;-73
2022/03/12 02:08:18;;;;;;;18.67;9.45;;;;;;;-4.24;67.23;95638.31;5069928;28;20150;-73
2022/03/12 02:10:44;;;;;;;18.27;10.00;;;;;;;-4.34;68.01;95646.91;5078979;28;20149;-73
2022/03/12 02:13:10;;;;;;;20.52;10.85;;;;;;;-4.35;67.63;95637.59;5088958;28;20020;-72
2022/03/12 02:15:36;;;;;;;19.80;10.23;;;;;;;-4.45;66.98;95646.19;5084931;28;20543;-73
2022/03/12 02:18:01;;;;;;;20.13;9.88;;;;;;;-4.39;66.88;95651.19;5086824;28;20024;-72
2022/03/12 02:20:27;;;;;;;22.00;10.88;;;;;;;-4.37;66.90;95652.88;5068317;28;20457;-73
2022/03/12 02:22:54;;;;;;;20.92;9.85;;;;;;;-4.38;67.13;95647.78;5089972;28;20024;-73
2022/03/12 02:25:29;;;;;;;18.95;9.25;;;;;;;-4.45;67.02;95654.66;5067700;28;20473;-72
2022/03/12 02:27:56;;;;;;;18.60;9.23;;;;;;;-4.41;66.81;95651.19;5070015;28;20387;-73
2022/03/12 02:30:24;;;;;;;18.05;9.32;;;;;;;-4.36;66.78;95648.63;5069939;28;20110;-72
2022/03/12 02:32:57;;;;;;;18.88;9.38;;;;;;;-4.36;65.96;95654.53;5069984;28;20059;-73
2022/03/12 02:35:24;;;;;;;17.90;9.30;;;;;;;-4.39;66.31;95651.19;5087253;28;20042;-72
2022/03/12 02:37:52;;;;;;;18.45;10.55;;;;;;;-4.34;66.47;95652.81;5070483;28;20020;-73
2022/03/12 02:40:18;;;;;;;19.27;8.57;;;;;;;-4.32;65.81;95660.41;5068122;28;20056;-73
2022/03/12 02:42:43;;;;;;;16.08;7.97;;;;;;;-4.35;65.82;95655.38;5088314;28;20079;-73
2022/03/12 02:45:09;;;;;;;14.98;8.00;;;;;;;-4.34;65.53;95652.81;5087291;28;20035;-73
2022/03/12 02:47:41;;;;;;;14.90;7.63;;;;;;;-4.33;65.11;95658.72;5065998;28;20104;-73
2022/03/12 02:50:09;;;;;;;14.60;7.32;;;;;;;-4.31;64.96;95660.41;5058884;28;20541;-73
2022/03/12 02:52:40;;;;;;;13.95;7.22;;;;;;;-4.34;65.02;95660.44;5062226;28;20032;-73
2022/03/12 02:55:06;;;;;;;13.02;6.55;;;;;;;-4.30;64.85;95661.22;5085027;28;20036;-72
2022/03/12 02:57:31;;;;;;;14.27;7.00;;;;;;;-4.28;64.51;95662.91;5086765;28;20109;-73
2022/03/12 03:00:04;;;;;;;14.98;7.45;;;;;;;-4.31;64.86;95662.94;5067273;28;20032;-73
2022/03/12 03:02:39;;;;;;;12.18;6.65;;;;;;;-4.33;65.26;95668.88;5070978;28;20097;-73
2022/03/12 03:05:07;;;;;;;13.30;6.60;;;;;;;-4.33;65.00;95669.72;5088107;28;20032;-72
2022/03/12 03:07:35;;;;;;;14.23;7.00;;;;;;;-4.29;65.51;95673.03;5088337;28;20021;-72
2022/03/12 03:10:01;;;;;;;10.38;5.75;;;;;;;-4.35;65.26;95661.28;5085112;28;20081;-73
2022/03/12 03:12:27;;;;;;;13.45;6.88;;;;;;;-4.28;64.94;95673.03;5053408;28;20028;-72
2022/03/12 03:14:52;;;;;;;13.23;6.32;;;;;;;-4.30;65.82;95679.00;5088781;28;20032;-73
2022/03/12 03:17:18;;;;;;;12.07;6.45;;;;;;;-4.34;65.41;95672.28;5086596;28;20233;-73
2022/03/12 03:19:44;;;;;;;12.60;6.32;;;;;;;-4.33;65.17;95684.94;5084255;28;20048;-73
2022/03/12 03:22:10;;;;;;;9.48;5.60;;;;;;;-4.35;65.07;95685.81;5089573;28;20089;-73
2022/03/12 03:24:35;;;;;;;12.82;6.63;;;;;;;-4.38;65.07;95679.06;5090695;28;20027;-72
2022/03/12 03:27:01;;;;;;;9.90;5.75;;;;;;;-4.37;65.31;95688.38;5091685;28;20036;-72
2022/03/12 03:29:28;;;;;;;11.98;6.28;;;;;;;-4.37;65.07;95687.53;5070139;28;20107;-72
2022/03/12 03:31:53;;;;;;;12.40;6.50;;;;;;;-4.45;65.75;95690.16;5091354;28;20035;-72
2022/03/12 03:34:19;;;;;;;13.10;6.60;;;;;;;-4.52;66.12;95686.81;5090228;28;20067;-73
2022/03/12 03:36:45;;;;;;;12.70;6.50;;;;;;;-4.61;66.88;95688.63;5073525;28;20047;-73
2022/03/12 03:39:10;;;;;;;14.27;6.68;;;;;;;-4.60;66.39;95695.38;5071385;28;20529;-72
2022/03/12 03:41:36;;;;;;;11.18;6.10;;;;;;;-4.64;65.71;95688.66;5089705;28;20090;-73
2022/03/12 03:44:01;;;;;;;15.18;6.88;;;;;;;-4.69;65.79;95693.78;5092830;28;20024;-72
2022/03/12 03:46:27;;;;;;;12.48;6.93;;;;;;;-4.74;66.04;95692.97;5088601;28;20032;-73
2022/03/12 03:48:53;;;;;;;9.02;5.18;;;;;;;-4.83;66.21;95693.91;5073113;28;20452;-72
2022/03/12 03:51:19;;;;;;;10.98;6.47;;;;;;;-4.96;66.40;95693.19;5069765;28;20063;-73
2022/03/12 03:53:45;;;;;;;11.45;6.35;;;;;;;-4.97;66.36;95701.63;5091701;28;20105;-73
2022/03/12 03:56:10;;;;;;;10.25;6.30;;;;;;;-5.01;66.91;95704.22;5089613;28;20036;-72
2022/03/12 03:58:36;;;;;;;9.85;5.80;;;;;;;-4.98;67.35;95702.47;5088273;28;20497;-72
2022/03/12 04:01:02;;;;;;;11.30;5.68;;;;;;;-5.03;67.02;95686.47;5091965;28;20062;-73
2022/03/12 04:03:32;;;;;;;9.60;5.35;;;;;;;-4.93;67.13;95697.38;5090016;28;20024;-73
2022/03/12 04:06:03;;;;;;;11.93;5.80;;;;;;;-5.04;66.48;95682.28;5073419;28;20040;-73
2022/03/12 04:08:29;;;;;;;;;;;;;;;-4.96;66.75;95708.38;5071693;28;20123;-72
2022/03/12 04:10:54;;;;;;;8.75;4.60;;;;;;;-4.98;66.90;95704.19;5087774;28;20015;-72
2022/03/12 04:13:21;;;;;;;8.50;4.78;;;;;;;-4.99;67.25;95708.38;5072893;28;20485;-73
2022/03/12 04:15:51;;;;;;;10.85;5.45;;;;;;;-5.03;67.57;95709.28;5072467;28;20035;-72
2022/03/12 04:18:18;;;;;;;11.02;5.78;;;;;;;-5.02;67.57;95707.59;5091317;28;20071;-72
2022/03/12 04:20:47;;;;;;;9.38;5.22;;;;;;;-5.02;67.42;95712.66;5072491;28;20028;-73
2022/03/12 04:23:20;;;;;;;13.80;6.68;;;;;;;-5.19;67.64;95687.44;5073221;28;20031;-73
2022/03/12 04:25:50;;;;;;;10.20;4.68;;;;;;;-5.05;68.05;95715.22;5073705;28;20032;-72
2022/03/12 04:28:16;;;;;;;10.30;5.32;;;;;;;-5.11;67.35;95708.50;5071168;28;20024;-73
2022/03/12 04:30:41;;;;;;;11.55;5.38;;;;;;;-5.06;67.15;95716.91;5086423;28;20051;-73
2022/03/12 04:33:07;;;;;;;10.43;5.45;;;;;;;-5.10;66.75;95715.25;5079719;28;20028;-73
2022/03/12 04:35:34;;;;;;;13.70;7.82;;;;;;;-5.13;66.57;95717.78;5085865;28;20058;-73
2022/03/12 04:38:00;;;;;;;28.00;16.15;;;;;;;-5.13;67.07;95720.34;5089139;28;20036;-73
2022/03/12 04:40:26;;;;;;;14.00;8.15;;;;;;;-5.15;66.61;95722.06;5086884;28;20059;-73
2022/03/12 04:42:52;;;;;;;14.55;7.57;;;;;;;-5.08;66.72;95727.91;5089151;28;20383;-73
2022/03/12 04:45:21;;;;;;;11.00;6.43;;;;;;;-5.15;65.87;95732.19;5089935;28;20058;-73
2022/03/12 04:47:48;;;;;;;11.98;6.15;;;;;;;-5.20;66.07;95738.97;5089410;28;20107;-73
2022/03/12 04:50:14;;;;;;;11.02;6.32;;;;;;;-5.35;66.22;95728.94;5071328;28;20036;-73
2022/03/12 04:52:44;;;;;;;11.50;6.03;;;;;;;-5.31;66.35;95750.88;5088320;28;20589;-73
2022/03/12 04:55:17;;;;;;;20.95;11.20;;;;;;;-5.43;65.13;95750.09;5090084;28;20062;-73
2022/03/12 04:57:43;;;;;;;14.43;6.93;;;;;;;-5.51;65.46;95743.41;5073240;28;20081;-73
2022/03/12 05:00:41;;;;;;;17.08;7.90;;;;;;;-5.52;65.94;95754.38;5070590;28;20028;-73
2022/03/12 05:03:09;;;;;;;20.02;11.63;;;;;;;-5.54;66.01;95751.00;5065856;28;20509;-73
2022/03/12 05:05:39;;;;;;;18.40;10.75;;;;;;;-5.56;66.57;95753.56;5081975;28;20111;-74
2022/03/12 05:08:05;;;;;;;14.88;7.82;;;;;;;-5.56;66.68;95755.25;5066557;28;20040;-73
2022/03/12 05:10:30;;;;;;;14.32;8.20;;;;;;;-5.66;66.81;95750.22;5045693;28;20081;-74
2022/03/12 05:13:00;;;;;;;18.90;9.35;;;;;;;-5.75;66.76;95755.31;5082774;28;20032;-74
2022/03/12 05:15:28;;;;;;;17.40;9.90;;;;;;;-5.70;66.84;95773.03;5087570;28;20413;-73
2022/03/12 05:17:56;;;;;;;22.35;10.07;;;;;;;-5.68;67.09;95776.41;5088166;28;20544;-73
2022/03/12 05:20:24;;;;;;;16.75;10.73;;;;;;;-5.62;67.57;95777.22;5087893;28;20036;-71
2022/03/12 05:22:49;;;;;;;19.05;9.85;;;;;;;-5.65;67.66;95763.72;5087890;28;20497;-73
2022/03/12 05:25:19;;;;;;;17.60;10.55;;;;;;;-5.57;67.61;95773.81;5067601;28;20036;-74
2022/03/12 05:27:51;;;;;;;17.42;10.25;;;;;;;-5.64;67.55;95767.94;5080483;28;20028;-73
2022/03/12 05:30:17;;;;;;;17.77;10.88;;;;;;;-5.70;67.50;95760.38;5059703;28;20143;-74
2022/03/12 05:32:42;;;;;;;19.25;10.98;;;;;;;-5.58;66.91;95783.09;5065221;28;20549;-73
2022/03/12 05:35:08;;;;;;;19.75;10.13;;;;;;;-5.68;66.55;95777.25;5086093;28;20028;-73
2022/03/12 05:37:34;;;;;;;19.75;10.52;;;;;;;-5.66;66.61;95792.41;5071100;28;20031;-73
2022/03/12 05:39:59;;;;;;;18.75;10.55;;;;;;;-5.72;66.75;95798.34;5085253;28;20044;-75
2022/03/12 05:42:26;;;;;;;18.35;9.75;;;;;;;-5.74;67.02;95796.66;5064834;28;20086;-74
2022/03/12 05:44:54;;;;;;;18.92;9.50;;;;;;;-5.69;66.32;95805.94;5056735;28;21191;-74
2022/03/12 05:47:20;;;;;;;19.25;10.90;;;;;;;-5.74;67.33;95801.72;5082677;28;20035;-73
2022/03/12 05:49:46;;;;;;;20.98;11.63;;;;;;;-5.68;67.61;95801.72;5061403;28;20046;-73
2022/03/12 05:52:13;;;;;;;22.25;11.20;;;;;;;-5.65;67.26;95811.84;5073349;28;20032;-73
2022/03/12 05:54:38;;;;;;;21.05;11.93;;;;;;;-5.59;67.27;95818.56;5060314;28;20167;-73
2022/03/12 05:57:04;;;;;;;21.75;11.20;;;;;;;-5.53;67.27;95816.84;5085489;28;20035;-73
2022/03/12 05:59:29;;;;;;;27.98;14.00;;;;;;;-5.44;68.26;95816.78;5083656;28;20042;-74
2022/03/12 06:01:55;;;;;;;24.10;11.73;;;;;;;-5.42;68.09;95820.16;5082097;28;20414;-73
2022/03/12 06:04:26;;;;;;;27.52;14.27;;;;;;;-5.32;67.99;95808.31;5066867;28;20411;-73
2022/03/12 06:06:53;;;;;;;29.98;15.48;;;;;;;-5.22;68.10;95824.28;5084374;28;20036;-73
2022/03/12 06:09:18;;;;;;;34.67;17.40;;;;;;;-5.09;67.44;95828.44;5048451;28;20478;-73
2022/03/12 06:11:45;;;;;;;29.05;15.30;;;;;;;-5.07;67.64;95820.81;5085694;28;20063;-73
2022/03/12 06:14:16;;;;;;;33.40;15.27;;;;;;;-4.36;67.07;95839.72;5047482;28;20113;-73
2022/03/12 06:16:46;;;;;;;29.08;16.52;;;;;;;-4.42;65.65;95838.97;5065941;28;20040;-74
2022/03/12 06:19:11;;;;;;;35.17;18.90;;;;;;;-4.37;65.18;95839.75;5082667;28;20032;-73
2022/03/12 06:21:37;;;;;;;38.92;20.17;;;;;;;-4.37;64.91;95843.13;5070913;28;20521;-73
2022/03/12 06:24:03;;;;;;;36.70;18.48;;;;;;;-4.46;65.83;95827.97;5080494;28;20028;-73
2022/03/12 06:26:35;;;;;;;31.88;17.77;;;;;;;-4.25;66.07;95851.50;5070858;28;20060;-74
2022/03/12 06:29:00;;;;;;;24.38;13.68;;;;;;;-4.17;66.07;95853.09;5048594;28;20639;-73
2022/03/12 06:31:26;;;;;;;22.42;12.50;;;;;;;-4.18;66.33;95841.28;5085129;28;20059;-73
2022/03/12 06:33:52;;;;;;;22.92;12.57;;;;;;;-4.12;66.11;95850.53;5064101;28;20475;-73
2022/03/12 06:36:19;;;;;;;19.27;12.02;;;;;;;-4.07;66.76;95846.22;5068487;28;20039;-77
2022/03/12 06:38:44;;;;;;;22.80;12.40;;;;;;;-4.05;65.71;95845.38;5079712;28;20067;-72
2022/03/12 06:41:10;;;;;;;22.83;12.18;;;;;;;-3.96;65.32;95858.81;5065566;28;20502;-73
2022/03/12 06:43:36;;;;;;;21.52;11.68;;;;;;;-3.93;65.62;95861.34;5081411;28;20102;-74
2022/03/12 06:46:02;;;;;;;23.90;13.25;;;;;;;-3.82;64.95;95860.41;5084887;28;20020;-73
2022/03/12 06:48:28;;;;;;;23.05;13.40;;;;;;;-3.83;64.62;95856.16;5081132;28;20089;-73
2022/03/12 06:50:54;;;;;;;28.98;14.63;;;;;;;-3.69;63.86;95861.09;5087280;28;20300;-71
2022/03/12 06:53:19;;;;;;;25.35;14.98;;;;;;;-3.70;63.36;95867.03;5079543;28;20090;-73
2022/03/12 06:55:45;;;;;;;35.95;18.50;;;;;;;-3.64;63.65;95866.97;5072148;28;20127;-72
2022/03/12 06:58:11;;;;;;;37.20;20.15;;;;;;;-3.64;63.28;95866.13;5091223;28;20524;-73
2022/03/12 07:00:36;;;;;;;40.08;21.33;;;;;;;-3.56;61.64;95864.34;5076537;28;20086;-72
2022/03/12 07:03:02;;;;;;;37.03;18.83;;;;;;;-3.00;60.29;95872.16;5085262;28;20028;-73
2022/03/12 07:05:28;;;;;;;34.10;17.58;;;;;;;-2.64;59.09;95875.03;5087379;28;20040;-72
2022/03/12 07:07:54;;;;;;;41.00;19.83;;;;;;;-2.40;58.54;95868.72;5066709;28;20479;-73
2022/03/12 07:10:19;;;;;;;28.83;16.15;;;;;;;-1.85;56.70;95876.28;5069420;28;20042;-72
2022/03/12 07:12:48;;;;;;;34.13;20.85;;;;;;;-1.39;53.95;95872.91;5090477;28;20417;-73
2022/03/12 07:15:15;;;;;;;24.25;14.98;;;;;;;-1.17;50.62;95869.91;5069324;28;20047;-71
2022/03/12 07:17:43;;;;;;;22.50;12.07;;;;;;;-0.96;51.14;95873.75;5081018;28;20024;-71
2022/03/12 07:20:10;;;;;;;24.15;12.57;;;;;;;-0.92;49.86;95876.22;5082041;28;20100;-70
2022/03/12 07:22:35;;;;;;;36.65;17.98;;;;;;;-1.08;49.20;95887.59;5064970;28;20145;-70
2022/03/12 07:25:01;;;;;;;42.45;19.15;;;;;;;-1.26;48.39;95893.06;5072245;28;20491;-72
2022/03/12 07:27:26;;;;;;;38.67;22.92;;;;;;;-1.46;49.28;95893.44;5090120;28;20028;-72
2022/03/12 07:29:52;;;;;;;25.48;13.55;;;;;;;-1.70;48.39;95897.28;5087591;28;20479;-72
2022/03/12 07:32:17;;;;;;;30.83;15.15;;;;;;;-1.97;49.75;95903.69;5051901;28;20035;-72
2022/03/12 07:34:43;;;;;;;36.13;18.20;;;;;;;-2.14;49.87;95906.53;5087841;28;20024;-72
2022/03/12 07:37:11;;;;;;;28.80;17.83;;;;;;;-2.17;50.24;95912.50;5084872;28;20047;-71
2022/03/12 07:39:37;;;;;;;35.90;19.98;;;;;;;-2.08;50.67;95914.91;5071792;28;20460;-72
2022/03/12 07:42:03;;;;;;;158.38;46.65;;;;;;;-2.08;50.63;95916.59;5090758;28;20093;-74
2022/03/12 07:44:28;;;;;;;67.55;26.58;;;;;;;-2.12;51.06;95914.97;5061347;28;20025;-73
2022/03/12 07:46:54;;;;;;;29.75;14.95;;;;;;;-2.17;49.06;95915.06;5081175;28;20046;-73
2022/03/12 07:49:20;;;;;;;23.70;13.02;;;;;;;-1.96;49.13;95915.56;5068300;28;20043;-73
2022/03/12 07:51:46;;;;;;;20.48;9.73;;;;;;;-1.96;48.12;95920.66;5091587;28;20039;-73
2022/03/12 07:54:13;;;;;;;32.95;16.77;;;;;;;-1.90;48.73;95910.34;5089642;28;20036;-73
2022/03/12 07:56:39;;;;;;;35.22;21.88;;;;;;;-1.74;48.26;95916.03;5064995;28;20045;-73
2022/03/12 07:59:04;;;;;;;31.25;20.27;;;;;;;-1.63;47.30;95909.06;5081804;28;20108;-73
2022/03/12 08:01:30;;;;;;;28.23;13.70;;;;;;;-1.48;47.69;95918.13;5088204;28;20080;-73
2022/03/12 08:03:55;;;;;;;21.23;10.25;;;;;;;-1.91;46.80;95909.53;5091094;28;20031;-73
2022/03/12 08:06:21;;;;;;;24.02;12.00;;;;;;;-1.96;48.39;95921.50;5088080;28;20028;-73
2022/03/12 08:08:46;;;;;;;43.92;20.45;;;;;;;-1.60;47.04;95911.53;5087992;28;20560;-73
2022/03/12 08:11:30;;;;;;;52.13;19.90;;;;;;;-1.32;46.58;95904.22;5088772;28;20055;-73
2022/03/12 08:14:01;;;;;;;32.80;14.07;;;;;;;-1.01;45.57;95914.66;5090397;28;20028;-74
2022/03/12 08:16:28;;;;;;;20.08;11.55;;;;;;;-0.85;45.17;95919.47;5091274;28;20040;-73
2022/03/12 08:18:54;;;;;;;17.40;9.13;;;;;;;-0.82;43.67;95909.19;5087178;28;20035;-73
2022/03/12 08:21:20;;;;;;;49.05;19.45;;;;;;;-0.73;44.92;95906.44;5080310;28;20028;-73
2022/03/12 08:23:46;;;;;;;30.48;14.55;;;;;;;-0.53;43.64;95898.34;5087862;28;20020;-73
2022/03/12 08:26:12;;;;;;;25.42;12.43;;;;;;;-0.52;42.52;95916.19;5073764;28;20471;-74
2022/03/12 08:28:37;;;;;;;28.90;12.38;;;;;;;-0.43;43.17;95916.84;5086855;28;20917;-74
2022/03/12 08:31:03;;;;;;;16.80;10.40;;;;;;;-0.29;41.54;95923.31;5090238;28;20081;-72
2022/03/12 08:33:29;;;;;;;24.00;10.50;;;;;;;-0.20;41.17;95924.81;5088013;28;20020;-74
2022/03/12 08:35:56;;;;;;;20.17;9.55;;;;;;;-0.28;40.51;95914.81;5091366;28;20425;-73
2022/03/12 08:38:22;;;;;;;38.03;14.85;;;;;;;-0.30;41.15;95924.22;5069458;28;20403;-73
2022/03/12 08:40:47;;;;;;;17.25;8.60;;;;;;;-0.30;40.73;95923.38;5089148;28;20035;-74
2022/03/12 08:43:13;;;;;;;35.63;20.38;;;;;;;-0.46;41.71;95915.22;5085654;28;20133;-73
2022/03/12 08:45:38;;;;;;;74.03;28.98;;;;;;;-0.50;43.00;95928.94;5071258;28;20092;-73
2022/03/12 08:48:04;;;;;;;21.27;10.38;;;;;;;-0.85;42.88;95934.78;5085036;28;20032;-73
2022/03/12 08:50:30;;;;;;;21.13;10.18;;;;;;;-0.85;42.75;95927.13;5087339;28;20051;-73
2022/03/12 08:52:57;;;;;;;20.35;10.55;;;;;;;-0.85;41.96;95927.94;5083722;28;20028;-73
2022/03/12 08:55:23;;;;;;;28.80;14.35;;;;;;;-0.83;43.20;95927.94;5091333;28;20119;-71
2022/03/12 08:57:49;;;;;;;16.05;8.90;;;;;;;-0.85;42.49;95927.13;5052571;28;20028;-73
2022/03/12 09:00:16;;;;;;;15.50;7.95;;;;;;;-1.08;41.95;95918.22;5068416;28;20421;-75
2022/03/12 09:02:41;;;;;;;26.17;16.58;;;;;;;-0.96;43.50;95920.50;5088608;28;20885;-73
2022/03/12 09:05:08;;;;;;;24.42;10.93;;;;;;;-0.85;41.79;95914.34;5073316;28;20036;-74
2022/03/12 09:07:34;;;;;;;16.98;9.20;;;;;;;-0.92;41.54;95921.28;5081934;28;20392;-74
2022/03/12 09:10:00;;;;;;;14.23;8.40;;;;;;;-1.01;42.04;95924.84;5066824;28;20447;-73
2022/03/12 09:12:25;;;;;;;35.45;13.05;;;;;;;-0.95;42.82;95926.44;5084005;28;20028;-74
2022/03/12 09:14:52;;;;;;;24.90;13.30;;;;;;;-0.94;43.59;95926.44;5088652;28;20024;-74
2022/03/12 09:17:17;;;;;;;32.00;15.75;;;;;;;-0.97;42.62;95929.03;5088846;28;20024;-74
2022/03/12 09:19:43;;;;;;;38.15;19.17;;;;;;;-1.00;42.56;95930.81;5086624;28;20043;-74
2022/03/12 09:22:08;;;;;;;29.45;13.68;;;;;;;-1.00;43.28;95936.75;5069028;28;20479;-74
2022/03/12 09:24:36;;;;;;;42.47;18.27;;;;;;;-1.06;44.00;95936.84;5063546;28;20024;-74
2022/03/12 09:27:01;;;;;;;24.38;12.25;;;;;;;-1.15;44.45;95942.97;5070227;28;20043;-72
2022/03/12 09:29:27;;;;;;;34.08;16.80;;;;;;;-1.27;45.33;95942.38;5086602;28;20472;-74
2022/03/12 09:31:52;;;;;;;26.05;12.93;;;;;;;-1.45;45.18;95936.78;5087851;28;20036;-74
2022/03/12 09:34:18;;;;;;;29.08;15.25;;;;;;;-1.41;45.26;95940.94;5088495;28;20039;-74
2022/03/12 09:36:43;;;;;;;33.47;13.77;;;;;;;-1.39;45.28;95943.47;5089185;28;20032;-74
2022/03/12 09:39:09;;;;;;;49.25;17.58;;;;;;;-1.34;45.13;95951.84;5088643;28;20059;-74
2022/03/12 09:41:34;;;;;;;31.33;14.93;;;;;;;-1.34;46.65;95944.19;5069405;28;20040;-74
2022/03/12 09:44:00;;;;;;;20.58;11.13;;;;;;;-1.26;44.56;95950.00;5076866;28;20282;-74
2022/03/12 09:46:26;;;;;;;30.27;13.30;;;;;;;-1.19;45.20;95945.63;5085559;28;20110;-74
2022/03/12 09:48:51;;;;;;;19.88;10.75;;;;;;;-1.08;43.77;95935.25;5084081;28;20407;-74
2022/03/12 09:51:17;;;;;;;29.42;13.70;;;;;;;-1.07;43.35;95945.38;5088983;28;20036;-74
2022/03/12 09:53:42;;;;;;;23.15;11.40;;;;;;;-1.04;43.25;95929.19;5069676;28;20031;-74
2022/03/12 09:56:07;;;;;;;17.63;9.07;;;;;;;-0.98;41.31;95935.00;5071671;28;20512;-74
2022/03/12 09:58:33;;;;;;;60.83;32.17;;;;;;;-0.83;42.07;95938.97;5079224;28;20074;-74
2022/03/12 10:00:58;;;;;;;37.55;21.38;;;;;;;-0.81;42.45;95926.16;5089280;28;20405;-74
2022/03/12 10:03:24;;;;;;;14.38;8.10;;;;;;;-0.70;40.25;95939.53;5077880;28;20040;-74
2022/03/12 10:05:49;;;;;;;13.10;6.80;;;;;;;-0.93;39.59;95933.19;5088578;28;20047;-74
2022/03/12 10:08:16;;;;;;;13.77;7.32;;;;;;;-1.22;40.98;95931.22;5086921;28;20039;-74
2022/03/12 10:10:41;;;;;;;12.13;7.28;;;;;;;-1.25;40.49;95930.47;5083932;28;20400;-74
2022/03/12 10:13:07;;;;;;;12.20;6.90;;;;;;;-1.39;39.68;95938.38;5070754;28;20031;-74
2022/03/12 10:15:32;;;;;;;10.20;6.82;;;;;;;-1.67;41.31;95930.34;5088439;28;20039;-74
2022/03/12 10:17:58;;;;;;;10.05;6.45;;;;;;;-1.55;43.18;95927.59;5079250;28;20036;-74
2022/03/12 10:20:24;;;;;;;8.75;5.40;;;;;;;-1.46;40.72;95912.13;5060237;28;20044;-73
2022/03/12 10:22:49;;;;;;;12.50;6.15;;;;;;;-1.38;40.17;95927.28;5062534;28;20056;-74
2022/03/12 10:25:15;;;;;;;10.73;5.68;;;;;;;-1.41;40.48;95923.09;5066264;28;20036;-76
2022/03/12 10:27:41;;;;;;;10.93;5.88;;;;;;;-1.23;41.53;95918.50;5084336;28;20506;-74
2022/03/12 10:30:07;;;;;;;10.32;6.32;;;;;;;-1.16;41.04;95908.16;5077272;28;20040;-76
2022/03/12 10:32:41;;;;;;;10.88;6.63;;;;;;;-1.05;41.67;95918.16;5049127;28;20510;-77
2022/03/12 10:35:07;;;;;;;10.45;5.75;;;;;;;-1.17;40.67;95923.47;5069780;28;20043;-76
2022/03/12 10:37:33;;;;;;;8.50;5.00;;;;;;;-1.26;39.97;95913.47;5075170;28;20032;-73
2022/03/12 10:40:16;;;;;;;9.27;5.03;;;;;;;-1.29;39.39;95911.81;5060333;28;20047;-73
2022/03/12 10:42:50;;;;;;;10.00;5.53;;;;;;;-1.25;40.25;95903.25;5060567;28;20097;-73
2022/03/12 10:45:17;;;;;;;10.05;5.85;;;;;;;-1.27;41.77;95899.03;5077158;28;20043;-73
2022/03/12 10:47:45;;;;;;;13.07;7.45;;;;;;;-1.11;41.51;95905.53;5078979;28;20036;-74
2022/03/12 10:50:25;;;;;;;14.40;7.80;;;;;;;-1.02;42.99;95901.94;5065375;28;20032;-73
2022/03/12 10:52:52;;;;;;;15.73;10.93;;;;;;;-0.88;42.27;95901.66;5080685;28;20455;-73
2022/03/12 10:55:26;;;;;;;18.00;10.07;;;;;;;-0.74;42.00;95895.38;5085890;28;20135;-72
2022/03/12 10:58:17;;;;;;;15.65;7.90;;;;;;;-0.63;41.14;95897.72;5087907;28;20071;-71
2022/03/12 11:00:59;;;;;;;16.58;8.18;;;;;;;-0.56;41.82;95891.59;5075930;28;20127;-74
2022/03/12 11:03:30;;;;;;;11.13;6.93;;;;;;;-0.59;39.66;95886.56;5086231;28;20040;-72
2022/03/12 11:05:56;;;;;;;13.07;7.55;;;;;;;-0.57;41.68;95892.47;5068012;28;20117;-71
2022/03/12 11:08:28;;;;;;;11.13;6.72;;;;;;;-0.58;41.02;95880.59;5061655;28;20549;-73
2022/03/12 11:11:14;;;;;;;12.50;7.78;;;;;;;-0.49;42.17;95877.81;5087709;28;20047;-72
2022/03/12 11:13:44;;;;;;;10.55;6.50;;;;;;;-0.46;41.32;95882.03;5065254;28;20021;-72
2022/03/12 11:16:23;;;;;;;13.70;7.97;;;;;;;-0.42;40.29;95887.88;5049885;28;20532;-72
2022/03/12 11:18:51;;;;;;;16.45;9.60;;;;;;;-0.44;40.90;95879.44;5079721;28;20031;-71
2022/03/12 11:21:44;;;;;;;13.38;9.05;;;;;;;-0.50;41.32;95886.38;5088677;28;20062;-72